sensor_id;sensor_type;location;lat;lon;timestamp;pressure;altitude;pressure_sealevel;temperature;humidity
1401;BME280;46518;48.842;8.926;2023-04-26T00:02:27;97179.63;;;7.16;85.80
1401;BME280;46518;48.842;8.926;2023-04-26T00:04:56;97177.03;;;7.16;85.13
1401;BME280;46518;48.842;8.926;2023-04-26T00:07:28;97183.94;;;7.10;85.54
1401;BME280;46518;48.842;8.926;2023-04-26T00:09:56;97175.75;;;7.07;85.18
1401;BME280;46518;48.842;8.926;2023-04-26T00:12:26;97185.13;;;6.96;85.11
1401;BME280;46518;48.842;8.926;2023-04-26T00:14:54;97184.78;;;6.93;86.10
1401;BME280;46518;48.842;8.926;2023-04-26T00:17:22;97184.50;;;6.82;86.63
1401;BME280;46518;48.842;8.926;2023-04-26T00:19:50;97182.88;;;6.81;86.12
1401;BME280;46518;48.842;8.926;2023-04-26T00:22:19;97189.06;;;6.68;85.90
1401;BME280;46518;48.842;8.926;2023-04-26T00:24:47;97189.06;;;6.68;85.14
1401;BME280;46518;48.842;8.926;2023-04-26T00:27:15;97191.97;;;6.60;86.30
1401;BME280;46518;48.842;8.926;2023-04-26T00:29:45;97198.44;;;6.58;85.22
1401;BME280;46518;48.842;8.926;2023-04-26T00:32:13;97194.44;;;6.55;85.37
1401;BME280;46518;48.842;8.926;2023-04-26T00:34:41;97196.13;;;6.50;84.94
1401;BME280;46518;48.842;8.926;2023-04-26T00:37:09;97194.09;;;6.52;85.35
1401;BME280;46518;48.842;8.926;2023-04-26T00:39:37;97189.22;;;6.55;85.12
1401;BME280;46518;48.842;8.926;2023-04-26T00:42:05;97184.94;;;6.42;84.62
1401;BME280;46518;48.842;8.926;2023-04-26T00:44:33;97181.09;;;6.45;84.55
1401;BME280;46518;48.842;8.926;2023-04-26T00:47:03;97181.22;;;6.50;85.18
1401;BME280;46518;48.842;8.926;2023-04-26T00:49:32;97186.41;;;6.57;85.27
1401;BME280;46518;48.842;8.926;2023-04-26T00:52:00;97187.78;;;6.59;84.67
1401;BME280;46518;48.842;8.926;2023-04-26T00:54:29;97190.41;;;6.59;84.65
1401;BME280;46518;48.842;8.926;2023-04-26T00:56:57;97194.81;;;6.59;84.20
1401;BME280;46518;48.842;8.926;2023-04-26T00:59:26;97193.22;;;6.58;84.40
1401;BME280;46518;48.842;8.926;2023-04-26T01:01:54;97192.31;;;6.64;84.05
1401;BME280;46518;48.842;8.926;2023-04-26T01:04:24;97194.25;;;6.57;84.06
1401;BME280;46518;48.842;8.926;2023-04-26T01:06:54;97186.91;;;6.65;84.29
1401;BME280;46518;48.842;8.926;2023-04-26T01:09:23;97188.06;;;6.69;84.01
1401;BME280;46518;48.842;8.926;2023-04-26T01:11:51;97190.59;;;6.76;84.31
1401;BME280;46518;48.842;8.926;2023-04-26T01:14:19;97183.56;;;6.77;84.30
1401;BME280;46518;48.842;8.926;2023-04-26T01:16:48;97187.56;;;6.79;84.75
1401;BME280;46518;48.842;8.926;2023-04-26T01:19:18;97187.81;;;6.71;85.05
1401;BME280;46518;48.842;8.926;2023-04-26T01:21:48;97181.88;;;6.45;86.98
1401;BME280;46518;48.842;8.926;2023-04-26T01:24:18;97185.22;;;6.53;86.81
1401;BME280;46518;48.842;8.926;2023-04-26T01:26:46;97192.03;;;6.54;86.83
1401;BME280;46518;48.842;8.926;2023-04-26T01:29:15;97184.44;;;6.09;88.00
1401;BME280;46518;48.842;8.926;2023-04-26T01:31:44;97188.00;;;6.14;88.87
1401;BME280;46518;48.842;8.926;2023-04-26T01:34:13;97191.63;;;6.13;89.28
1401;BME280;46518;48.842;8.926;2023-04-26T01:36:44;97185.88;;;6.30;89.19
1401;BME280;46518;48.842;8.926;2023-04-26T01:39:13;97186.38;;;6.38;88.44
1401;BME280;46518;48.842;8.926;2023-04-26T01:41:42;97182.88;;;6.26;88.65
1401;BME280;46518;48.842;8.926;2023-04-26T01:44:11;97176.28;;;6.42;88.95
1401;BME280;46518;48.842;8.926;2023-04-26T01:46:39;97183.41;;;6.35;89.33
1401;BME280;46518;48.842;8.926;2023-04-26T01:49:07;97172.59;;;6.50;89.42
1401;BME280;46518;48.842;8.926;2023-04-26T01:51:35;97174.41;;;6.49;88.90
1401;BME280;46518;48.842;8.926;2023-04-26T01:54:05;97173.03;;;6.46;88.89
1401;BME280;46518;48.842;8.926;2023-04-26T01:56:34;97173.81;;;6.47;88.76
1401;BME280;46518;48.842;8.926;2023-04-26T01:59:03;97165.19;;;6.46;88.13
1401;BME280;46518;48.842;8.926;2023-04-26T02:01:32;97168.50;;;6.54;88.20
1401;BME280;46518;48.842;8.926;2023-04-26T02:04:00;97169.59;;;6.46;87.25
1401;BME280;46518;48.842;8.926;2023-04-26T02:06:28;97166.09;;;6.34;87.52
1401;BME280;46518;48.842;8.926;2023-04-26T02:08:57;97170.91;;;6.37;87.60
1401;BME280;46518;48.842;8.926;2023-04-26T02:11:25;97169.38;;;6.29;87.96
1401;BME280;46518;48.842;8.926;2023-04-26T02:13:53;97180.88;;;6.21;88.83
1401;BME280;46518;48.842;8.926;2023-04-26T02:16:23;97182.56;;;6.16;89.67
1401;BME280;46518;48.842;8.926;2023-04-26T02:18:53;97182.84;;;6.08;90.94
1401;BME280;46518;48.842;8.926;2023-04-26T02:21:21;97185.66;;;6.06;90.82
1401;BME280;46518;48.842;8.926;2023-04-26T02:23:49;97180.06;;;6.02;92.42
1401;BME280;46518;48.842;8.926;2023-04-26T02:26:17;97180.53;;;6.18;92.33
1401;BME280;46518;48.842;8.926;2023-04-26T02:28:45;97187.28;;;6.25;92.30
1401;BME280;46518;48.842;8.926;2023-04-26T02:31:13;97185.78;;;6.36;92.40
1401;BME280;46518;48.842;8.926;2023-04-26T02:33:43;97187.69;;;6.47;92.04
1401;BME280;46518;48.842;8.926;2023-04-26T02:36:11;97191.63;;;6.57;92.10
1401;BME280;46518;48.842;8.926;2023-04-26T02:38:39;97196.34;;;6.66;91.60
1401;BME280;46518;48.842;8.926;2023-04-26T02:41:07;97190.59;;;6.76;91.90
1401;BME280;46518;48.842;8.926;2023-04-26T02:43:35;97188.34;;;6.80;91.99
1401;BME280;46518;48.842;8.926;2023-04-26T02:46:06;97189.72;;;6.82;92.10
1401;BME280;46518;48.842;8.926;2023-04-26T02:48:34;97186.66;;;6.85;92.18
1401;BME280;46518;48.842;8.926;2023-04-26T02:51:04;97183.84;;;6.87;92.19
1401;BME280;46518;48.842;8.926;2023-04-26T02:53:33;97184.06;;;6.85;92.25
1401;BME280;46518;48.842;8.926;2023-04-26T02:56:01;97176.94;;;6.56;92.22
1401;BME280;46518;48.842;8.926;2023-04-26T02:58:30;97185.63;;;6.31;93.45
1401;BME280;46518;48.842;8.926;2023-04-26T03:00:58;97187.13;;;6.02;95.98
1401;BME280;46518;48.842;8.926;2023-04-26T03:03:27;97184.72;;;6.00;96.53
1401;BME280;46518;48.842;8.926;2023-04-26T03:05:57;97190.69;;;6.26;95.82
1401;BME280;46518;48.842;8.926;2023-04-26T03:08:26;97179.75;;;6.36;95.22
1401;BME280;46518;48.842;8.926;2023-04-26T03:10:54;97187.25;;;5.82;97.56
1401;BME280;46518;48.842;8.926;2023-04-26T03:13:23;97180.47;;;5.74;97.99
1401;BME280;46518;48.842;8.926;2023-04-26T03:15:53;97192.59;;;5.94;98.08
1401;BME280;46518;48.842;8.926;2023-04-26T03:18:22;97178.34;;;5.90;97.43
1401;BME280;46518;48.842;8.926;2023-04-26T03:20:50;97180.94;;;5.90;98.23
1401;BME280;46518;48.842;8.926;2023-04-26T03:23:19;97183.13;;;5.99;97.80
1401;BME280;46518;48.842;8.926;2023-04-26T03:25:52;97182.53;;;5.97;97.07
1401;BME280;46518;48.842;8.926;2023-04-26T03:28:21;97176.16;;;5.87;97.17
1401;BME280;46518;48.842;8.926;2023-04-26T03:30:49;97175.28;;;5.99;96.74
1401;BME280;46518;48.842;8.926;2023-04-26T03:33:19;97187.47;;;6.05;96.13
1401;BME280;46518;48.842;8.926;2023-04-26T03:35:47;97177.34;;;6.16;95.91
1401;BME280;46518;48.842;8.926;2023-04-26T03:38:15;97172.25;;;6.21;95.77
1401;BME280;46518;48.842;8.926;2023-04-26T03:40:44;97175.91;;;6.20;95.82
1401;BME280;46518;48.842;8.926;2023-04-26T03:43:13;97174.88;;;6.21;95.14
1401;BME280;46518;48.842;8.926;2023-04-26T03:45:45;97171.94;;;6.11;96.32
1401;BME280;46518;48.842;8.926;2023-04-26T03:48:14;97169.34;;;6.11;94.97
1401;BME280;46518;48.842;8.926;2023-04-26T03:50:44;97173.47;;;6.00;96.06
1401;BME280;46518;48.842;8.926;2023-04-26T03:53:12;97180.59;;;6.11;95.81
1401;BME280;46518;48.842;8.926;2023-04-26T03:55:40;97180.81;;;6.10;95.46
1401;BME280;46518;48.842;8.926;2023-04-26T03:58:09;97190.63;;;6.14;96.43
1401;BME280;46518;48.842;8.926;2023-04-26T04:00:39;97188.00;;;6.14;96.00
1401;BME280;46518;48.842;8.926;2023-04-26T04:03:08;97189.28;;;6.05;95.53
1401;BME280;46518;48.842;8.926;2023-04-26T04:05:36;97192.09;;;6.03;95.55
1401;BME280;46518;48.842;8.926;2023-04-26T04:08:05;97185.94;;;5.91;95.41
1401;BME280;46518;48.842;8.926;2023-04-26T04:10:34;97184.63;;;5.82;96.83
1401;BME280;46518;48.842;8.926;2023-04-26T04:13:03;97187.03;;;6.09;96.06
1401;BME280;46518;48.842;8.926;2023-04-26T04:15:32;97182.09;;;6.00;95.91
1401;BME280;46518;48.842;8.926;2023-04-26T04:18:01;97180.19;;;6.14;95.92
1401;BME280;46518;48.842;8.926;2023-04-26T04:20:30;97179.81;;;5.79;95.47
1401;BME280;46518;48.842;8.926;2023-04-26T04:22:59;97183.59;;;5.58;95.84
1401;BME280;46518;48.842;8.926;2023-04-26T04:25:28;97181.03;;;5.19;97.09
1401;BME280;46518;48.842;8.926;2023-04-26T04:28:00;97184.41;;;5.27;98.04
1401;BME280;46518;48.842;8.926;2023-04-26T04:30:28;97186.59;;;4.85;100.00
1401;BME280;46518;48.842;8.926;2023-04-26T04:32:57;97190.69;;;5.12;100.00
1401;BME280;46518;48.842;8.926;2023-04-26T04:35:29;97186.53;;;5.36;98.38
1401;BME280;46518;48.842;8.926;2023-04-26T04:38:02;97191.13;;;5.41;98.60
1401;BME280;46518;48.842;8.926;2023-04-26T04:40:31;97191.69;;;5.50;98.01
1401;BME280;46518;48.842;8.926;2023-04-26T04:42:59;97183.72;;;5.38;97.47
1401;BME280;46518;48.842;8.926;2023-04-26T04:45:29;97193.94;;;5.39;98.13
1401;BME280;46518;48.842;8.926;2023-04-26T04:47:58;97195.88;;;5.51;97.26
1401;BME280;46518;48.842;8.926;2023-04-26T04:50:28;97194.81;;;5.58;96.63
1401;BME280;46518;48.842;8.926;2023-04-26T04:52:57;97202.13;;;5.50;96.89
1401;BME280;46518;48.842;8.926;2023-04-26T04:55:26;97204.50;;;5.51;96.89
1401;BME280;46518;48.842;8.926;2023-04-26T04:57:55;97193.50;;;5.49;96.30
1401;BME280;46518;48.842;8.926;2023-04-26T05:00:24;97206.72;;;5.54;97.21
1401;BME280;46518;48.842;8.926;2023-04-26T05:03:17;97212.09;;;5.59;96.66
1401;BME280;46518;48.842;8.926;2023-04-26T05:05:47;97210.50;;;5.58;96.67
1401;BME280;46518;48.842;8.926;2023-04-26T05:08:15;97216.31;;;5.60;97.21
1401;BME280;46518;48.842;8.926;2023-04-26T05:10:44;97217.66;;;5.70;96.95
1401;BME280;46518;48.842;8.926;2023-04-26T05:13:12;97218.91;;;5.60;96.53
1401;BME280;46518;48.842;8.926;2023-04-26T05:15:40;97220.59;;;5.80;97.16
1401;BME280;46518;48.842;8.926;2023-04-26T05:18:09;97217.75;;;5.81;97.29
1401;BME280;46518;48.842;8.926;2023-04-26T05:20:37;97217.56;;;5.51;98.48
1401;BME280;46518;48.842;8.926;2023-04-26T05:23:07;97228.00;;;5.83;98.21
1401;BME280;46518;48.842;8.926;2023-04-26T05:25:36;97225.59;;;5.81;96.75
1401;BME280;46518;48.842;8.926;2023-04-26T05:28:24;97236.38;;;5.67;98.34
1401;BME280;46518;48.842;8.926;2023-04-26T05:31:08;97233.09;;;5.71;99.63
1401;BME280;46518;48.842;8.926;2023-04-26T05:34:12;97238.78;;;5.93;98.67
1401;BME280;46518;48.842;8.926;2023-04-26T05:36:41;97233.53;;;6.00;98.87
1401;BME280;46518;48.842;8.926;2023-04-26T05:39:11;97233.91;;;6.03;98.19
1401;BME280;46518;48.842;8.926;2023-04-26T05:41:39;97237.91;;;6.06;97.85
1401;BME280;46518;48.842;8.926;2023-04-26T05:44:08;97246.28;;;5.83;100.00
1401;BME280;46518;48.842;8.926;2023-04-26T05:46:37;97251.25;;;5.98;99.49
1401;BME280;46518;48.842;8.926;2023-04-26T05:49:07;97250.88;;;5.88;99.47
1401;BME280;46518;48.842;8.926;2023-04-26T05:51:35;97246.03;;;5.91;99.57
1401;BME280;46518;48.842;8.926;2023-04-26T05:54:03;97250.88;;;5.94;100.00
1401;BME280;46518;48.842;8.926;2023-04-26T05:56:33;97241.22;;;5.88;100.00
1401;BME280;46518;48.842;8.926;2023-04-26T05:59:01;97245.38;;;6.02;100.00
1401;BME280;46518;48.842;8.926;2023-04-26T06:01:31;97237.16;;;6.24;99.29
1401;BME280;46518;48.842;8.926;2023-04-26T06:04:01;97249.66;;;6.47;98.13
1401;BME280;46518;48.842;8.926;2023-04-26T06:06:36;97250.59;;;6.53;97.42
1401;BME280;46518;48.842;8.926;2023-04-26T06:09:04;97256.22;;;6.75;96.52
1401;BME280;46518;48.842;8.926;2023-04-26T06:11:34;97257.00;;;6.75;95.55
1401;BME280;46518;48.842;8.926;2023-04-26T06:14:02;97257.44;;;6.72;94.39
1401;BME280;46518;48.842;8.926;2023-04-26T06:16:31;97258.03;;;6.74;91.46
1401;BME280;46518;48.842;8.926;2023-04-26T06:18:59;97258.53;;;6.83;92.07
1401;BME280;46518;48.842;8.926;2023-04-26T06:21:28;97264.72;;;7.07;91.21
1401;BME280;46518;48.842;8.926;2023-04-26T06:23:57;97261.34;;;7.18;90.40
1401;BME280;46518;48.842;8.926;2023-04-26T06:26:27;97264.06;;;7.30;89.62
1401;BME280;46518;48.842;8.926;2023-04-26T06:28:56;97273.69;;;7.48;89.24
1401;BME280;46518;48.842;8.926;2023-04-26T06:31:25;97267.72;;;7.59;88.12
1401;BME280;46518;48.842;8.926;2023-04-26T06:33:55;97271.72;;;7.73;87.50
1401;BME280;46518;48.842;8.926;2023-04-26T06:36:24;97266.53;;;7.85;86.07
1401;BME280;46518;48.842;8.926;2023-04-26T06:38:54;97273.28;;;7.93;85.39
1401;BME280;46518;48.842;8.926;2023-04-26T06:41:22;97269.44;;;8.07;84.74
1401;BME280;46518;48.842;8.926;2023-04-26T06:43:51;97271.72;;;8.15;84.24
1401;BME280;46518;48.842;8.926;2023-04-26T06:46:22;97262.16;;;8.09;83.11
1401;BME280;46518;48.842;8.926;2023-04-26T06:48:52;97257.03;;;8.26;83.01
1401;BME280;46518;48.842;8.926;2023-04-26T06:51:21;97260.94;;;8.35;82.50
1401;BME280;46518;48.842;8.926;2023-04-26T06:53:49;97264.06;;;8.44;81.90
1401;BME280;46518;48.842;8.926;2023-04-26T06:56:18;97264.59;;;8.46;80.93
1401;BME280;46518;48.842;8.926;2023-04-26T06:58:57;97263.59;;;8.47;80.60
1401;BME280;46518;48.842;8.926;2023-04-26T07:01:28;97261.41;;;8.56;80.23
1401;BME280;46518;48.842;8.926;2023-04-26T07:04:00;97259.16;;;8.59;79.63
1401;BME280;46518;48.842;8.926;2023-04-26T07:06:30;97257.31;;;8.60;78.30
1401;BME280;46518;48.842;8.926;2023-04-26T07:08:58;97256.53;;;8.59;76.70
1401;BME280;46518;48.842;8.926;2023-04-26T07:11:27;97255.03;;;8.75;76.32
1401;BME280;46518;48.842;8.926;2023-04-26T07:13:56;97256.97;;;8.80;76.16
1401;BME280;46518;48.842;8.926;2023-04-26T07:16:25;97258.00;;;8.79;76.35
1401;BME280;46518;48.842;8.926;2023-04-26T07:18:55;97254.44;;;8.85;76.17
1401;BME280;46518;48.842;8.926;2023-04-26T07:21:24;97253.19;;;8.88;75.91
1401;BME280;46518;48.842;8.926;2023-04-26T07:23:53;97253.19;;;8.99;75.66
1401;BME280;46518;48.842;8.926;2023-04-26T07:26:22;97252.81;;;9.07;74.68
1401;BME280;46518;48.842;8.926;2023-04-26T07:28:52;97244.25;;;9.12;74.45
1401;BME280;46518;48.842;8.926;2023-04-26T07:31:21;97242.97;;;9.15;73.29
1401;BME280;46518;48.842;8.926;2023-04-26T07:33:49;97240.81;;;9.12;72.88
1401;BME280;46518;48.842;8.926;2023-04-26T07:36:19;97245.72;;;9.20;72.27
1401;BME280;46518;48.842;8.926;2023-04-26T07:38:50;97239.94;;;9.35;70.74
1401;BME280;46518;48.842;8.926;2023-04-26T07:41:18;97244.97;;;9.36;70.27
1401;BME280;46518;48.842;8.926;2023-04-26T07:43:47;97243.16;;;9.37;69.78
1401;BME280;46518;48.842;8.926;2023-04-26T07:46:15;97234.56;;;9.41;69.50
1401;BME280;46518;48.842;8.926;2023-04-26T07:48:44;97239.16;;;9.34;67.25
1401;BME280;46518;48.842;8.926;2023-04-26T07:51:12;97237.31;;;9.35;67.00
1401;BME280;46518;48.842;8.926;2023-04-26T07:53:42;97241.50;;;9.47;67.20
1401;BME280;46518;48.842;8.926;2023-04-26T07:56:10;97239.53;;;9.55;66.86
1401;BME280;46518;48.842;8.926;2023-04-26T07:58:39;97239.31;;;9.56;66.45
1401;BME280;46518;48.842;8.926;2023-04-26T08:01:07;97243.75;;;9.56;65.30
1401;BME280;46518;48.842;8.926;2023-04-26T08:03:37;97240.38;;;9.43;65.59
1401;BME280;46518;48.842;8.926;2023-04-26T08:06:06;97248.78;;;9.57;65.92
1401;BME280;46518;48.842;8.926;2023-04-26T08:08:36;97252.38;;;9.68;65.18
1401;BME280;46518;48.842;8.926;2023-04-26T08:11:10;97251.59;;;9.67;64.81
1401;BME280;46518;48.842;8.926;2023-04-26T08:13:38;97252.25;;;9.75;65.22
1401;BME280;46518;48.842;8.926;2023-04-26T08:16:06;97254.69;;;9.64;64.96
1401;BME280;46518;48.842;8.926;2023-04-26T08:18:35;97255.56;;;9.70;62.12
1401;BME280;46518;48.842;8.926;2023-04-26T08:21:03;97254.91;;;9.63;62.40
1401;BME280;46518;48.842;8.926;2023-04-26T08:23:32;97250.66;;;9.90;63.18
1401;BME280;46518;48.842;8.926;2023-04-26T08:26:03;97249.16;;;9.94;62.20
1401;BME280;46518;48.842;8.926;2023-04-26T08:28:33;97260.50;;;10.12;62.08
1401;BME280;46518;48.842;8.926;2023-04-26T08:31:02;97260.41;;;10.07;61.62
1401;BME280;46518;48.842;8.926;2023-04-26T08:33:30;97252.44;;;10.02;60.51
1401;BME280;46518;48.842;8.926;2023-04-26T08:35:59;97258.34;;;10.09;60.79
1401;BME280;46518;48.842;8.926;2023-04-26T08:38:28;97261.38;;;10.18;61.73
1401;BME280;46518;48.842;8.926;2023-04-26T08:40:58;97264.13;;;10.40;62.29
1401;BME280;46518;48.842;8.926;2023-04-26T08:43:28;97256.53;;;10.43;62.56
1401;BME280;46518;48.842;8.926;2023-04-26T08:45:58;97256.13;;;10.51;61.77
1401;BME280;46518;48.842;8.926;2023-04-26T08:48:30;97257.53;;;10.25;57.98
1401;BME280;46518;48.842;8.926;2023-04-26T08:51:01;97260.63;;;10.51;58.69
1401;BME280;46518;48.842;8.926;2023-04-26T08:53:33;97258.50;;;10.70;59.62
1401;BME280;46518;48.842;8.926;2023-04-26T08:56:03;97249.09;;;10.74;59.84
1401;BME280;46518;48.842;8.926;2023-04-26T08:58:31;97256.78;;;10.80;60.49
1401;BME280;46518;48.842;8.926;2023-04-26T09:01:01;97248.72;;;10.87;60.60
1401;BME280;46518;48.842;8.926;2023-04-26T09:03:30;97255.13;;;10.91;60.30
1401;BME280;46518;48.842;8.926;2023-04-26T09:05:59;97253.97;;;11.04;59.69
1401;BME280;46518;48.842;8.926;2023-04-26T09:08:31;97252.72;;;10.90;57.50
1401;BME280;46518;48.842;8.926;2023-04-26T09:11:02;97246.03;;;10.82;56.53
1401;BME280;46518;48.842;8.926;2023-04-26T09:13:30;97231.78;;;11.00;57.37
1401;BME280;46518;48.842;8.926;2023-04-26T09:15:58;97235.25;;;11.06;55.81
1401;BME280;46518;48.842;8.926;2023-04-26T09:18:31;97239.50;;;11.07;54.38
1401;BME280;46518;48.842;8.926;2023-04-26T09:21:02;97231.84;;;11.05;56.78
1401;BME280;46518;48.842;8.926;2023-04-26T09:23:31;97233.28;;;10.74;53.54
1401;BME280;46518;48.842;8.926;2023-04-26T09:26:16;97235.88;;;10.52;52.12
1401;BME280;46518;48.842;8.926;2023-04-26T09:28:44;97238.50;;;10.52;54.57
1401;BME280;46518;48.842;8.926;2023-04-26T09:31:38;97244.56;;;10.19;57.13
1401;BME280;46518;48.842;8.926;2023-04-26T09:34:09;97229.41;;;10.43;56.87
1401;BME280;46518;48.842;8.926;2023-04-26T09:36:50;97222.94;;;10.67;56.93
1401;BME280;46518;48.842;8.926;2023-04-26T09:39:29;97233.72;;;10.88;58.38
1401;BME280;46518;48.842;8.926;2023-04-26T09:41:59;97217.97;;;10.93;59.24
1401;BME280;46518;48.842;8.926;2023-04-26T09:44:28;97225.25;;;10.64;55.86
1401;BME280;46518;48.842;8.926;2023-04-26T09:46:59;97225.50;;;10.45;53.21
1401;BME280;46518;48.842;8.926;2023-04-26T09:49:31;97231.16;;;10.20;52.75
1401;BME280;46518;48.842;8.926;2023-04-26T09:52:01;97234.69;;;10.09;54.36
1401;BME280;46518;48.842;8.926;2023-04-26T09:54:44;97230.69;;;9.89;58.38
1401;BME280;46518;48.842;8.926;2023-04-26T09:57:15;97223.34;;;9.91;57.12
1401;BME280;46518;48.842;8.926;2023-04-26T09:59:44;97233.16;;;9.96;58.43
1401;BME280;46518;48.842;8.926;2023-04-26T10:02:15;97231.81;;;10.27;57.42
1401;BME280;46518;48.842;8.926;2023-04-26T10:04:46;97223.03;;;10.55;56.61
1401;BME280;46518;48.842;8.926;2023-04-26T10:07:17;97228.19;;;10.67;55.66
1401;BME280;46518;48.842;8.926;2023-04-26T10:09:45;97220.44;;;10.77;56.49
1401;BME280;46518;48.842;8.926;2023-04-26T10:12:16;97217.16;;;11.09;56.10
1401;BME280;46518;48.842;8.926;2023-04-26T10:14:45;97219.03;;;11.36;55.63
1401;BME280;46518;48.842;8.926;2023-04-26T10:17:14;97221.41;;;11.64;56.30
1401;BME280;46518;48.842;8.926;2023-04-26T10:19:44;97225.41;;;11.94;56.81
1401;BME280;46518;48.842;8.926;2023-04-26T10:22:18;97214.44;;;12.07;55.15
1401;BME280;46518;48.842;8.926;2023-04-26T10:24:48;97209.59;;;12.32;55.29
1401;BME280;46518;48.842;8.926;2023-04-26T10:27:48;97211.00;;;12.07;51.54
1401;BME280;46518;48.842;8.926;2023-04-26T10:30:21;97207.28;;;12.40;51.25
1401;BME280;46518;48.842;8.926;2023-04-26T10:33:19;97207.06;;;12.47;50.74
1401;BME280;46518;48.842;8.926;2023-04-26T10:36:07;97212.19;;;12.64;52.57
1401;BME280;46518;48.842;8.926;2023-04-26T10:38:38;97206.38;;;12.67;52.39
1401;BME280;46518;48.842;8.926;2023-04-26T10:41:35;97205.06;;;12.69;51.35
1401;BME280;46518;48.842;8.926;2023-04-26T10:44:39;97195.56;;;12.63;53.29
1401;BME280;46518;48.842;8.926;2023-04-26T10:47:21;97197.88;;;12.55;53.22
1401;BME280;46518;48.842;8.926;2023-04-26T10:49:50;97196.72;;;12.40;52.51
1401;BME280;46518;48.842;8.926;2023-04-26T10:52:19;97195.56;;;12.63;53.15
1401;BME280;46518;48.842;8.926;2023-04-26T10:54:53;97196.38;;;12.74;51.66
1401;BME280;46518;48.842;8.926;2023-04-26T10:57:25;97198.31;;;12.94;51.96
1401;BME280;46518;48.842;8.926;2023-04-26T11:00:31;97204.81;;;12.66;50.72
1401;BME280;46518;48.842;8.926;2023-04-26T11:03:04;97201.19;;;12.87;51.23
1401;BME280;46518;48.842;8.926;2023-04-26T11:05:38;97202.81;;;12.93;50.65
1401;BME280;46518;48.842;8.926;2023-04-26T11:08:16;97201.25;;;13.03;50.55
1401;BME280;46518;48.842;8.926;2023-04-26T11:10:49;97197.78;;;12.92;49.43
1401;BME280;46518;48.842;8.926;2023-04-26T11:13:19;97192.16;;;12.73;49.67
1401;BME280;46518;48.842;8.926;2023-04-26T11:15:52;97190.66;;;12.98;51.07
1401;BME280;46518;48.842;8.926;2023-04-26T11:18:21;97189.41;;;13.10;51.70
1401;BME280;46518;48.842;8.926;2023-04-26T11:20:49;97171.47;;;13.23;52.44
1401;BME280;46518;48.842;8.926;2023-04-26T11:23:19;97148.50;;;13.23;52.42
1401;BME280;46518;48.842;8.926;2023-04-26T11:25:47;97163.31;;;13.34;51.63
1401;BME280;46518;48.842;8.926;2023-04-26T11:28:17;97154.88;;;13.48;51.30
1401;BME280;46518;48.842;8.926;2023-04-26T11:30:45;97162.25;;;13.30;50.73
1401;BME280;46518;48.842;8.926;2023-04-26T11:33:16;97151.44;;;13.32;50.06
1401;BME280;46518;48.842;8.926;2023-04-26T11:35:45;97147.22;;;13.31;49.48
1401;BME280;46518;48.842;8.926;2023-04-26T11:38:14;97149.88;;;13.56;49.80
1401;BME280;46518;48.842;8.926;2023-04-26T11:40:43;97137.44;;;13.52;49.89
1401;BME280;46518;48.842;8.926;2023-04-26T11:43:12;97136.41;;;13.78;50.76
1401;BME280;46518;48.842;8.926;2023-04-26T11:45:41;97128.22;;;13.95;51.33
1401;BME280;46518;48.842;8.926;2023-04-26T11:48:11;97126.06;;;14.02;50.74
1401;BME280;46518;48.842;8.926;2023-04-26T11:50:40;97127.16;;;13.66;46.92
1401;BME280;46518;48.842;8.926;2023-04-26T11:53:08;97121.34;;;13.53;47.88
1401;BME280;46518;48.842;8.926;2023-04-26T11:55:38;97116.03;;;13.53;51.04
1401;BME280;46518;48.842;8.926;2023-04-26T11:58:12;97117.38;;;13.66;49.40
1401;BME280;46518;48.842;8.926;2023-04-26T12:01:04;97122.63;;;13.92;49.44
1401;BME280;46518;48.842;8.926;2023-04-26T12:03:33;97123.41;;;13.97;49.30
1401;BME280;46518;48.842;8.926;2023-04-26T12:06:04;97127.91;;;14.12;48.96
1401;BME280;46518;48.842;8.926;2023-04-26T12:08:32;97120.53;;;13.89;46.52
1401;BME280;46518;48.842;8.926;2023-04-26T12:11:01;97130.84;;;13.85;44.48
1401;BME280;46518;48.842;8.926;2023-04-26T12:13:31;97124.47;;;13.50;45.22
1401;BME280;46518;48.842;8.926;2023-04-26T12:16:06;97126.81;;;13.16;44.94
1401;BME280;46518;48.842;8.926;2023-04-26T12:18:51;97134.34;;;12.82;46.32
1401;BME280;46518;48.842;8.926;2023-04-26T12:21:19;97127.56;;;13.11;48.07
1401;BME280;46518;48.842;8.926;2023-04-26T12:23:48;97124.75;;;13.44;48.05
1401;BME280;46518;48.842;8.926;2023-04-26T12:26:16;97120.53;;;13.84;48.52
1401;BME280;46518;48.842;8.926;2023-04-26T12:28:47;97123.41;;;14.08;49.65
1401;BME280;46518;48.842;8.926;2023-04-26T12:31:15;97093.00;;;13.95;47.91
1401;BME280;46518;48.842;8.926;2023-04-26T12:33:44;97117.81;;;14.19;47.46
1401;BME280;46518;48.842;8.926;2023-04-26T12:36:12;97128.94;;;14.21;46.32
1401;BME280;46518;48.842;8.926;2023-04-26T12:38:40;97120.97;;;14.32;47.25
1401;BME280;46518;48.842;8.926;2023-04-26T12:41:09;97113.28;;;14.45;48.18
1401;BME280;46518;48.842;8.926;2023-04-26T12:43:37;97115.38;;;14.54;48.60
1401;BME280;46518;48.842;8.926;2023-04-26T12:46:07;97102.41;;;14.42;46.43
1401;BME280;46518;48.842;8.926;2023-04-26T12:48:35;97109.16;;;13.83;44.59
1401;BME280;46518;48.842;8.926;2023-04-26T12:51:04;97107.84;;;13.75;47.33
1401;BME280;46518;48.842;8.926;2023-04-26T12:53:32;97109.69;;;13.49;45.97
1401;BME280;46518;48.842;8.926;2023-04-26T12:56:00;97104.16;;;13.66;47.38
1401;BME280;46518;48.842;8.926;2023-04-26T12:58:29;97103.59;;;13.44;46.05
1401;BME280;46518;48.842;8.926;2023-04-26T13:00:58;97106.78;;;13.35;46.03
1401;BME280;46518;48.842;8.926;2023-04-26T13:03:27;97111.28;;;13.76;45.01
1401;BME280;46518;48.842;8.926;2023-04-26T13:05:56;97114.44;;;13.93;44.46
1401;BME280;46518;48.842;8.926;2023-04-26T13:08:25;97104.66;;;13.89;45.03
1401;BME280;46518;48.842;8.926;2023-04-26T13:10:53;97104.69;;;13.58;46.81
1401;BME280;46518;48.842;8.926;2023-04-26T13:13:22;97092.78;;;13.61;45.15
1401;BME280;46518;48.842;8.926;2023-04-26T13:16:06;97102.28;;;13.77;43.41
1401;BME280;46518;48.842;8.926;2023-04-26T13:18:36;97101.50;;;13.71;44.39
1401;BME280;46518;48.842;8.926;2023-04-26T13:21:04;97095.94;;;13.88;45.99
1401;BME280;46518;48.842;8.926;2023-04-26T13:23:32;97091.97;;;13.80;42.57
1401;BME280;46518;48.842;8.926;2023-04-26T13:26:00;97094.06;;;13.94;46.93
1401;BME280;46518;48.842;8.926;2023-04-26T13:28:28;97091.38;;;14.19;47.52
1401;BME280;46518;48.842;8.926;2023-04-26T13:30:56;97096.19;;;13.81;44.98
1401;BME280;46518;48.842;8.926;2023-04-26T13:33:25;97107.84;;;13.60;45.65
1401;BME280;46518;48.842;8.926;2023-04-26T13:35:55;97102.28;;;13.51;42.11